Latest Coastal Weather Observations for Taree Airport

IDN60701

Issued at 7:02 am EST Wednesday 24 August 2016 (issued every 10 minutes, with the page automatically refreshed every 10 minutes)

About coastal observations | Map of coastal stations | Coastal observations for NSW | Marine services | Other Formats
Station Details ID: 060141 Name: TAREE AIRPORT AWS Lat: -31.89 Lon: 152.51 Height: 8.0 m
Data from the previous 72 hours. | See also: Recent months at Taree Airport
Date/Time
EST
Temp
°C
Wind Pressure Rain since
9am
mm
Weather Cloud Vis
km
Sea
Height
m
Swell
Dir  Spd
kts
Gust
kts
hPa Trend Height
m
Period
s
Dir
24/07:00am 11.3 W 4 4 1012.6 - 2.8 - Partly cloudy 10 - - - -
24/06:30am 11.3 W 4 6 1013.1 - 2.4 - Partly cloudy 10 - - - -
24/06:00am 11.2 W 5 6 1013.0 - 1.8 Showers Cloudy 10 - - - -
24/05:30am 11.2 NNW 3 4 1012.4 - 1.8 - Partly cloudy 10 - - - -
24/05:00am 11.2 NW 4 5 1012.3 - 1.6 - Cloudy 10 - - - -
24/04:30am 11.2 WNW 6 7 1012.6 - 1.4 - Partly cloudy 10 - - - -
24/04:00am 11.2 WNW 5 7 1012.7 - 1.0 - Partly cloudy 10 - - - -
24/03:30am 11.4 WNW 4 6 1012.6 - 0.8 - Partly cloudy 10 - - - -
24/03:00am 11.5 WNW 5 7 1013.2 - 0.4 Rain Cloudy 10 - - - -
24/02:30am 11.7 WSW 7 8 1013.0 - 0.4 - Cloudy 10 - - - -
24/02:00am 11.5 WSW 5 6 1013.4 - 0.2 - Partly cloudy 10 - - - -
24/01:30am 11.5 NW 4 5 1013.5 - 0.2 - Partly cloudy 10 - - - -
24/01:00am 11.7 WNW 3 4 1013.3 - 0.2 - Partly cloudy 10 - - - -
24/12:30am 12.2 WNW 4 5 1014.2 - 0.2 - Partly cloudy 10 - - - -
24/12:00am 12.4 WNW 4 5 1014.4 - 0.0 Rain Cloudy 10 - - - -
 
Date/Time
EST
Temp
°C
Wind Pressure Rain since
9am
mm
Weather Cloud Vis
km
Sea
Height
m
Swell
Dir  Spd
kts
Gust
kts
hPa Trend Height
m
Period
s
Dir
23/11:30pm 12.5 WSW 4 4 1014.7 - 0.0 - Partly cloudy 10 - - - -
23/11:00pm 12.4 WSW 5 6 1015.1 - 0.0 - Cloudy 10 - - - -
23/10:30pm 12.9 WNW 6 7 1015.5 - 0.0 - Partly cloudy 10 - - - -
23/10:00pm 13.4 NW 6 7 1015.2 - 0.0 - Partly cloudy 10 - - - -
23/09:30pm 13.6 NW 5 6 1015.5 - 0.0 - Partly cloudy 10 - - - -
23/09:00pm 13.5 NW 6 6 1015.7 - 0.0 - Mostly clear 10 - - - -
23/08:30pm 12.6 NNW 3 4 1015.8 - 0.0 - Cloudy 10 - - - -
23/08:00pm 13.3 NW 4 6 1015.9 - 0.0 - Partly cloudy 10 - - - -
23/07:30pm 14.0 NW 5 7 1015.9 - 0.0 - Partly cloudy 10 - - - -
23/07:00pm 14.5 WSW 3 5 1016.0 - 0.0 - Partly cloudy 10 - - - -
23/06:30pm 14.7 WSW 4 6 1015.4 - 0.0 - Cloudy 10 - - - -
23/06:00pm 14.5 WSW 5 6 1015.2 - 0.0 - Mostly cloudy 10 - - - -
23/05:30pm 14.6 SW 5 6 1014.5 - 0.0 - Partly cloudy 10 - - - -
23/05:00pm 14.7 S 7 11 1014.1 - 0.0 - Partly cloudy 10 - - - -
23/04:30pm 15.1 S 9 14 1013.1 - 0.0 - Partly cloudy 10 - - - -
23/04:00pm 15.4 S 8 14 1013.3 - 0.0 - Partly cloudy 10 - - - -
23/03:30pm 15.7 SSE 9 13 1012.9 - 0.0 - Partly cloudy 10 - - - -
23/03:00pm 15.9 SE 9 14 1012.5 - 0.0 - Mostly cloudy 10 - - - -
23/02:30pm 16.8 SE 4 6 1012.1 - 0.0 - Partly cloudy 10 - - - -
23/02:00pm 16.6 S 3 6 1012.4 - 0.0 - - 10 - - - -
23/01:30pm 16.0 SSE 5 6 1012.8 - 0.0 - Partly cloudy 10 - - - -
23/01:00pm 16.2 SW 3 5 1013.0 - 0.0 - Partly cloudy 10 - - - -
23/12:30pm 14.7 W 5 6 1013.3 - 0.0 - Partly cloudy 10 - - - -
23/12:00pm 14.0 NW 6 7 1013.6 - 0.0 - Cloudy 10 - - - -
23/11:30am 13.7 NW 6 7 1014.0 - 0.0 - Cloudy 10 - - - -
23/11:00am 13.2 W 6 7 1014.1 - 0.0 - Partly cloudy 10 - - - -
23/10:30am 12.9 W 5 7 1014.2 - 0.0 - Cloudy 10 - - - -
23/10:00am 12.4 W 7 9 1014.2 - 0.0 - Partly cloudy 10 - - - -
23/09:30am 11.9 WSW 5 7 1013.8 - 0.0 - Partly cloudy 10 - - - -
23/09:00am 11.4 W 4 5 1013.5 - 4.2 Showers Cloudy 10 - - - -
23/08:30am 11.1 NNW 3 5 1013.4 - 4.2 - Partly cloudy 10 - - - -
23/08:00am 11.0 N 5 7 1013.2 - 4.2 - Cloudy 10 - - - -
23/07:30am 10.7 CALM 0 0 1012.8 - 4.2 - Cloudy 10 - - - -
23/07:00am 10.5 NNE 1 4 1012.6 - 4.2 - Cloudy 10 - - - -
23/06:49am 10.1 E 1 4 1012.2 - 4.2 - Cloudy 10 - - - -
23/06:30am 9.7 ENE 2 4 1012.0 - 4.2 - Cloudy 4 - - - -
23/06:26am 9.6 SE 1 4 1012.0 - 4.2 - Cloudy 5 - - - -
23/06:00am 10.1 SE 1 3 1011.9 - 4.2 - Mostly cloudy 10 - - - -
23/05:38am 10.0 CALM 0 0 1011.7 - 4.2 - Partly cloudy 7 - - - -
23/05:30am 9.2 CALM 0 0 1011.6 - 4.2 - Partly cloudy 7 - - - -
23/05:14am 9.5 SE 1 4 1011.6 - 4.2 - Cloudy 8 - - - -
23/05:00am 9.6 SSE 5 7 1011.2 - 4.2 - Cloudy 1 - - - -
23/04:30am 9.1 NNW 5 7 1010.9 - 4.2 - Cloudy 0.2 - - - -
23/04:00am 8.9 WNW 1 5 1010.5 - 4.0 - Partly cloudy 0.1 - - - -
23/03:30am 9.7 W 4 6 1010.6 - 4.0 - Partly cloudy 0.4 - - - -
23/03:20am 9.8 W 2 5 1010.3 - 4.0 - Partly cloudy 0.7 - - - -
23/03:00am 10.0 W 6 8 1010.7 - 4.0 - Mostly clear 1 - - - -
23/02:30am 10.1 NW 4 6 1010.7 - 4.0 - Partly cloudy 0.3 - - - -
23/02:00am 10.3 N 4 4 1011.2 - 4.0 - Partly cloudy 0.2 - - - -
23/01:31am 10.8 WNW 3 4 1011.4 - 4.0 - Partly cloudy 5 - - - -
23/01:30am 10.9 WNW 3 4 1011.4 - 4.0 - Partly cloudy 7 - - - -
23/01:18am 11.2 CALM 0 3 1011.5 - 4.0 - Partly cloudy 9 - - - -
23/01:00am 11.1 CALM 0 0 1011.5 - 4.0 - Partly cloudy 3 - - - -
23/12:40am 11.1 CALM 0 0 1011.9 - 4.0 - Cloudy 5 - - - -
23/12:30am 11.4 WNW 3 4 1011.8 - 4.0 - Cloudy 8 - - - -
23/12:00am 11.4 CALM 0 0 1011.8 - 4.0 Showers Mostly cloudy 6 - - - -
 
Date/Time
EST
Temp
°C
Wind Pressure Rain since
9am
mm
Weather Cloud Vis
km
Sea
Height
m
Swell
Dir  Spd
kts
Gust
kts
hPa Trend Height
m
Period
s
Dir
22/11:30pm 11.1 CALM 0 0 1012.2 - 4.0 - Cloudy 7 - - - -
22/11:00pm 11.2 WSW 1 4 1012.4 - 4.0 - Partly cloudy 7 - - - -
22/10:30pm 11.1 WSW 5 7 1012.5 - 4.0 - Partly cloudy 8 - - - -
22/10:22pm 11.1 SW 5 6 1012.5 - 4.0 - Partly cloudy 7 - - - -
22/10:00pm 11.1 WSW 1 4 1012.5 - 3.8 - - 4 - - - -
22/09:50pm 11.1 CALM 0 0 1012.6 - 3.8 - - 5 - - - -
22/09:48pm 11.1 CALM 0 0 1012.6 - 3.8 - - 6 - - - -
22/09:30pm 11.2 CALM 0 0 1013.2 - 3.8 - Partly cloudy 4 - - - -
22/09:08pm 11.2 CALM 0 0 1013.4 - 3.8 - Partly cloudy 5 - - - -
22/09:00pm 11.1 CALM 0 0 1013.5 - 3.8 Showers Partly cloudy 6 - - - -
22/08:57pm 11.1 CALM 0 0 1013.6 - 3.6 - Partly cloudy 6 - - - -
22/08:30pm 11.3 WSW 1 4 1013.9 - 3.2 - Cloudy 5 - - - -
22/08:24pm 11.4 CALM 0 0 1014.0 - 3.0 - Cloudy 5 - - - -
22/08:00pm 11.3 WSW 4 7 1014.4 - 2.2 - Partly cloudy 7 - - - -
22/07:30pm 11.1 NE 5 6 1013.9 - 1.4 - Cloudy 9 - - - -
22/07:00pm 11.3 NW 4 5 1014.0 - 1.2 - Cloudy 10 - - - -
22/06:30pm 11.5 WNW 8 9 1014.5 - 1.0 - Cloudy 10 - - - -
22/06:00pm 12.0 WNW 5 7 1014.2 - 0.4 Rain Cloudy 10 - - - -
22/05:30pm 12.9 WSW 6 8 1014.0 - 0.2 - Cloudy 10 - - - -
22/05:00pm 14.5 WSW 7 10 1014.0 - 0.0 - Partly cloudy 10 - - - -
22/04:30pm 15.6 SW 6 7 1014.0 - 0.0 - Partly cloudy 10 - - - -
22/04:00pm 16.4 WSW 6 8 1013.8 - 0.0 - Partly cloudy 10 - - - -
22/03:30pm 16.9 WSW 7 8 1013.7 - 0.0 - Cloudy 10 - - - -
22/03:00pm 17.2 WSW 5 6 1013.4 - 0.0 - Partly cloudy 10 - - - -
22/02:30pm 17.8 SW 4 5 1013.1 - 0.0 - - 10 - - - -
22/02:00pm 17.8 SW 5 7 1013.6 - 0.0 - - 10 - - - -
22/01:30pm 17.8 WSW 6 8 1014.1 - 0.0 - - 10 - - - -
22/01:00pm 17.2 SSW 4 5 1014.2 - 0.0 - - 10 - - - -
22/12:30pm 16.9 SW 5 6 1014.7 - 0.0 - - 10 - - - -
22/12:00pm 16.1 SSW 5 7 1015.2 - 0.0 - - 10 - - - -
22/11:30am 15.7 SSW 5 6 1016.0 - 0.0 - - 10 - - - -
22/11:00am 14.8 WSW 5 6 1016.1 - 0.0 - - 10 - - - -
22/10:30am 13.7 SSE 1 4 1016.2 - 0.0 - - 10 - - - -
22/10:00am 13.0 W 2 4 1016.9 - 0.0 - - 10 - - - -
22/09:30am 11.7 WSW 3 5 1017.1 - 0.0 - - 10 - - - -
22/09:00am 10.4 W 1 4 1017.4 - 0.0 - - 10 - - - -
22/08:30am 8.3 W 4 5 1017.5 - 0.0 - - 10 - - - -
22/08:00am 6.6 WNW 3 6 1017.6 - 0.0 - - 10 - - - -
22/07:30am 4.4 CALM 0 0 1017.8 - 0.0 - - 10 - - - -
22/07:00am 3.1 WNW 1 3 1017.5 - 0.0 - - 10 - - - -
22/06:30am 3.5 WNW 4 5 1017.4 - 0.0 - - 10 - - - -
22/06:00am 2.9 W 5 6 1017.2 - 0.0 - Mostly clear 10 - - - -
22/05:30am 1.6 CALM 0 0 1017.1 - 0.0 - - 8 - - - -
22/05:00am 2.0 CALM 0 0 1017.2 - 0.0 - - 10 - - - -
22/04:30am 1.9 CALM 0 0 1017.5 - 0.0 - - 10 - - - -
22/04:00am 2.1 CALM 0 0 1017.6 - 0.0 - - 10 - - - -
22/03:30am 2.2 NW 3 4 1017.4 - 0.0 - - 10 - - - -
22/03:00am 3.1 W 1 3 1017.4 - 0.0 - - 10 - - - -
22/02:30am 3.8 CALM 0 0 1017.7 - 0.0 - - 10 - - - -
22/02:00am 3.6 W 2 4 1017.8 - 0.0 - - 10 - - - -
22/01:30am 4.5 WSW 3 4 1018.1 - 0.0 - - 10 - - - -
22/01:00am 4.3 NW 1 3 1018.4 - 0.0 - - 10 - - - -
22/12:30am 4.3 CALM 0 0 1018.5 - 0.0 - - 10 - - - -
22/12:00am 5.3 CALM 0 0 1018.5 - 0.0 - - 10 - - - -
 
Date/Time
EST
Temp
°C
Wind Pressure Rain since
9am
mm
Weather Cloud Vis
km
Sea
Height
m
Swell
Dir  Spd
kts
Gust
kts
hPa Trend Height
m
Period
s
Dir
21/11:30pm 5.1 NW 5 6 1018.8 - 0.0 - - 10 - - - -
21/11:00pm 6.2 SW 4 6 1018.7 - 0.0 - - 10 - - - -
21/10:30pm 6.3 WSW 2 5 1019.1 - 0.0 - - 10 - - - -
21/10:00pm 6.9 WSW 3 4 1019.4 - 0.0 - - 10 - - - -
21/09:30pm 6.7 CALM 0 0 1019.3 - 0.0 - - 10 - - - -
21/09:00pm 8.0 WSW 1 4 1019.7 - 0.0 - - 10 - - - -
21/08:30pm 7.8 W 2 6 1019.2 - 0.0 - - 10 - - - -
21/08:00pm 8.5 NE 1 4 1019.1 - 0.0 - - 10 - - - -
21/07:30pm 8.9 ENE 4 5 1018.7 - 0.0 - - 10 - - - -
21/07:00pm 9.5 NE 5 6 1018.8 - 0.0 - - 10 - - - -
21/06:30pm 9.9 NE 6 7 1018.7 - 0.0 - - 10 - - - -
21/06:00pm 10.6 NE 5 6 1018.7 - 0.0 - - 10 - - - -
21/05:30pm 12.4 ENE 6 8 1018.7 - 0.0 - - 10 - - - -
21/05:00pm 13.9 ENE 7 8 1018.5 - 0.0 - - 10 - - - -
21/04:30pm 14.9 ENE 7 8 1018.2 - 0.0 - - 10 - - - -
21/04:00pm 15.3 E 8 10 1018.0 - 0.0 - - 10 - - - -
21/03:30pm 16.1 ENE 9 12 1017.9 - 0.0 - - 10 - - - -
21/03:00pm 16.0 E 8 12 1017.8 - 0.0 - - 10 - - - -
21/02:30pm 17.0 ENE 7 14 1017.8 - 0.0 - - 10 - - - -
21/02:00pm 17.7 SSE 4 5 1018.1 - 0.0 - - 10 - - - -
21/01:30pm 16.7 S 5 7 1018.5 - 0.0 - - 10 - - - -
21/01:00pm 16.5 WSW 6 9 1018.7 - 0.0 - - 10 - - - -
21/12:30pm 15.9 SW 6 9 1019.1 - 0.0 - - 10 - - - -
21/12:00pm 15.2 S 6 11 1019.5 - 0.0 - - 10 - - - -
21/11:30am 15.1 S 7 10 1020.2 - 0.0 - - 10 - - - -
21/11:00am 14.7 SW 6 9 1020.5 - 0.0 - - 10 - - - -
21/10:30am 14.3 WSW 6 8 1020.8 - 0.0 - - 10 - - - -
21/10:00am 13.7 WSW 6 12 1020.9 - 0.0 - - 10 - - - -
21/09:30am 13.5 WNW 5 8 1021.1 - 0.0 - - 10 - - - -
21/09:00am 11.9 W 5 8 1021.1 - 0.0 - - 10 - - - -
21/08:30am 11.1 WNW 4 6 1021.2 - 0.0 - - 10 - - - -
21/08:00am 9.1 WSW 6 8 1021.0 - 0.0 - - 10 - - - -
21/07:30am 7.5 W 5 7 1020.6 - 0.0 - - 10 - - - -

Other Formats:

Comma delimited format used in spreadsheet applications
http://www.bom.gov.au/fwo/IDN60701/IDN60701.95784.axf

JavaScript Object Notation format (JSON) in row-major order
http://www.bom.gov.au/fwo/IDN60701/IDN60701.95784.json